createdAt,value
2023-12-30T00:00:00.721Z,246.8
2023-12-30T00:05:00.675Z,243.1
2023-12-30T00:10:00.914Z,230.0
2023-12-30T00:15:00.698Z,206.3
2023-12-30T00:20:01.279Z,212.4
2023-12-30T00:25:01.019Z,205.6
2023-12-30T00:30:00.670Z,197.9
2023-12-30T00:35:00.729Z,191.8
2023-12-30T00:40:00.904Z,202.6
2023-12-30T00:45:00.675Z,204.2
2023-12-30T00:50:00.945Z,202.7
2023-12-30T00:55:00.960Z,205.1
2023-12-30T01:00:00.647Z,201.0
2023-12-30T01:05:01.381Z,217.6
2023-12-30T01:10:00.924Z,204.9
2023-12-30T01:15:00.706Z,205.6
2023-12-30T01:20:00.691Z,200.1
2023-12-30T01:25:00.913Z,207.6
2023-12-30T01:30:00.708Z,209.0
2023-12-30T01:35:01.244Z,197.8
2023-12-30T01:40:02.551Z,206.8
2023-12-30T01:45:00.708Z,205.8
2023-12-30T01:50:00.706Z,212.5
2023-12-30T01:55:01.032Z,206.7
2023-12-30T02:00:00.711Z,210.3
2023-12-30T02:05:01.197Z,204.9
2023-12-30T02:10:00.864Z,203.8
2023-12-30T02:15:00.774Z,193.5
2023-12-30T02:20:01.207Z,205.3
2023-12-30T02:25:01.031Z,208.4
2023-12-30T02:30:00.729Z,203.4
2023-12-30T02:35:00.942Z,202.7
2023-12-30T02:40:01.228Z,199.4
2023-12-30T02:45:00.711Z,209.3
2023-12-30T02:50:00.968Z,190.1
2023-12-30T02:55:00.858Z,200.0
2023-12-30T03:00:00.735Z,204.7
2023-12-30T03:05:01.074Z,198.2
2023-12-30T03:10:01.301Z,199.5
2023-12-30T03:15:00.705Z,202.2
2023-12-30T03:20:00.904Z,216.5
2023-12-30T03:25:00.811Z,202.9
2023-12-30T03:30:00.818Z,205.1
2023-12-30T03:35:01.012Z,196.0
2023-12-30T03:40:01.078Z,208.1
2023-12-30T03:45:00.707Z,202.6
2023-12-30T03:50:01.196Z,197.9
2023-12-30T03:55:00.983Z,205.8
2023-12-30T04:00:00.725Z,203.7
2023-12-30T04:05:01.158Z,206.8
2023-12-30T04:10:01.097Z,198.9
2023-12-30T04:15:00.801Z,209.8
2023-12-30T04:20:00.994Z,208.1
2023-12-30T04:25:00.944Z,204.3
2023-12-30T04:30:00.719Z,228.6
2023-12-30T04:35:01.020Z,216.3
2023-12-30T04:40:01.216Z,210.5
2023-12-30T04:45:00.787Z,212.9
2023-12-30T04:50:01.053Z,204.4
2023-12-30T04:55:00.858Z,223.8
2023-12-30T05:00:00.748Z,222.0
2023-12-30T05:05:01.146Z,225.2
2023-12-30T05:10:00.968Z,208.1
2023-12-30T05:15:00.710Z,231.7
2023-12-30T05:20:00.763Z,235.6
2023-12-30T05:25:00.948Z,238.1
2023-12-30T05:30:00.779Z,204.0
2023-12-30T05:35:01.199Z,226.5
2023-12-30T05:40:01.067Z,220.4
2023-12-30T05:45:00.731Z,221.1
2023-12-30T05:50:01.077Z,222.1
2023-12-30T05:55:00.937Z,213.7
2023-12-30T06:00:00.793Z,209.5
2023-12-30T06:05:00.789Z,238.9
2023-12-30T06:10:00.866Z,213.3
2023-12-30T06:15:00.721Z,197.6
2023-12-30T06:20:01.241Z,205.3
2023-12-30T06:25:01.135Z,205.5
2023-12-30T06:30:00.758Z,205.4
2023-12-30T06:35:00.804Z,214.7
2023-12-30T06:40:01.045Z,203.9
2023-12-30T06:45:00.712Z,202.9
2023-12-30T06:50:00.982Z,217.5
2023-12-30T06:55:32.103Z,199.6
2023-12-30T07:00:00.741Z,195.7
2023-12-30T07:05:00.983Z,208.7
2023-12-30T07:10:01.000Z,199.3
2023-12-30T07:15:01.158Z,213.2
2023-12-30T07:20:01.332Z,204.1
2023-12-30T07:25:00.969Z,200.3
2023-12-30T07:30:00.686Z,197.7
2023-12-30T07:35:01.587Z,203.1
2023-12-30T07:40:01.189Z,206.2
2023-12-30T07:45:00.763Z,207.6
2023-12-30T07:50:01.026Z,201.1
2023-12-30T07:55:00.907Z,200.2
2023-12-30T08:00:00.771Z,205.8
2023-12-30T08:05:01.038Z,202.1
2023-12-30T08:10:00.978Z,204.2
2023-12-30T08:15:00.739Z,196.4
2023-12-30T08:20:00.731Z,204.0
2023-12-30T08:25:01.374Z,198.7
2023-12-30T08:30:00.992Z,201.6
2023-12-30T08:35:00.951Z,208.5
2023-12-30T08:40:00.942Z,202.6
2023-12-30T08:45:00.754Z,214.3
2023-12-30T08:50:01.151Z,202.2
2023-12-30T08:55:01.053Z,202.8
2023-12-30T09:00:00.806Z,203.9
2023-12-30T09:05:01.055Z,207.0
2023-12-30T09:10:00.795Z,207.8
2023-12-30T09:15:00.821Z,201.9
2023-12-30T09:20:01.136Z,205.0
2023-12-30T09:25:00.931Z,211.1
2023-12-30T09:30:00.746Z,198.3
2023-12-30T09:35:01.187Z,205.4
2023-12-30T09:40:01.158Z,210.2
2023-12-30T09:45:00.702Z,202.5
2023-12-30T09:50:00.819Z,205.2
2023-12-30T09:55:00.902Z,210.1
2023-12-30T10:00:00.796Z,218.2
2023-12-30T10:05:01.969Z,213.8
2023-12-30T10:10:00.834Z,194.2
2023-12-30T10:15:00.749Z,216.4
2023-12-30T10:20:01.118Z,236.5
2023-12-30T10:25:00.829Z,219.3
2023-12-30T10:30:02.210Z,215.0
2023-12-30T10:35:00.807Z,222.9
2023-12-30T10:40:00.965Z,203.4
2023-12-30T10:45:00.714Z,216.1
2023-12-30T10:50:01.197Z,224.4
2023-12-30T10:55:00.913Z,213.1
2023-12-30T11:00:00.845Z,210.5
2023-12-30T11:05:01.100Z,216.3
2023-12-30T11:10:00.879Z,191.7
2023-12-30T11:15:00.742Z,196.5
2023-12-30T11:20:00.859Z,201.0
2023-12-30T11:25:00.774Z,197.5
2023-12-30T11:30:00.751Z,214.3
2023-12-30T11:35:01.226Z,206.0
2023-12-30T11:40:01.020Z,211.9
2023-12-30T11:45:01.220Z,210.4
2023-12-30T11:50:00.931Z,211.6
2023-12-30T11:55:00.915Z,215.5
2023-12-30T12:00:00.680Z,201.9
2023-12-30T12:05:00.876Z,206.8
2023-12-30T12:10:00.864Z,209.6
2023-12-30T12:15:00.928Z,225.5
2023-12-30T12:20:01.309Z,214.5
2023-12-30T12:25:01.038Z,216.5
2023-12-30T12:30:01.070Z,201.8
2023-12-30T12:35:00.938Z,194.0
2023-12-30T12:40:01.175Z,227.1
2023-12-30T12:45:00.869Z,211.6
2023-12-30T12:50:01.243Z,236.6
2023-12-30T12:55:01.052Z,209.3
2023-12-30T13:00:00.775Z,211.3
2023-12-30T13:05:01.038Z,204.0
2023-12-30T13:10:00.923Z,206.5
2023-12-30T13:15:00.895Z,213.4
2023-12-30T13:20:01.259Z,203.0
2023-12-30T13:25:01.197Z,209.8
2023-12-30T13:30:00.715Z,204.8
2023-12-30T13:35:01.339Z,237.8
2023-12-30T13:40:00.909Z,241.0
2023-12-30T13:45:00.719Z,232.6
2023-12-30T13:50:01.458Z,249.2
2023-12-30T13:55:01.012Z,227.6
2023-12-30T14:00:00.804Z,239.6
2023-12-30T14:05:01.044Z,234.5
2023-12-30T14:10:01.285Z,210.1
2023-12-30T14:15:00.705Z,207.0
2023-12-30T14:20:00.842Z,209.0
2023-12-30T14:25:00.919Z,207.2
2023-12-30T14:30:00.639Z,205.9
2023-12-30T14:35:01.001Z,213.1
2023-12-30T14:40:00.930Z,203.1
2023-12-30T14:45:00.702Z,211.4
2023-12-30T14:50:01.206Z,199.6
2023-12-30T14:55:03.156Z,212.7
2023-12-30T15:00:00.762Z,218.0
2023-12-30T15:05:00.973Z,211.6
2023-12-30T15:10:00.885Z,216.0
2023-12-30T15:15:00.770Z,214.8
2023-12-30T15:20:02.360Z,220.5
2023-12-30T15:25:00.899Z,198.2
2023-12-30T15:30:00.850Z,234.5
2023-12-30T15:35:01.227Z,251.7
2023-12-30T15:40:01.000Z,234.0
2023-12-30T15:45:00.682Z,226.8
2023-12-30T15:50:01.715Z,223.9
2023-12-30T15:55:01.688Z,239.9
2023-12-30T16:00:00.671Z,231.2
2023-12-30T16:05:01.168Z,219.9
2023-12-30T16:10:01.120Z,218.3
2023-12-30T16:15:00.783Z,206.8
2023-12-30T16:20:00.882Z,204.2
2023-12-30T16:25:00.836Z,209.8
2023-12-30T16:30:00.623Z,206.4
2023-12-30T16:35:01.030Z,206.8
2023-12-30T16:40:01.121Z,204.9
2023-12-30T16:45:00.801Z,195.8
2023-12-30T16:50:01.207Z,192.5
2023-12-30T16:55:00.924Z,182.0
2023-12-30T17:00:00.645Z,197.5
2023-12-30T17:05:01.342Z,198.3
2023-12-30T17:10:00.906Z,192.8
2023-12-30T17:15:00.834Z,192.3
2023-12-30T17:20:00.818Z,188.0
2023-12-30T17:25:00.830Z,189.7
2023-12-30T17:30:00.664Z,183.9
2023-12-30T17:35:00.699Z,168.8
2023-12-30T17:40:00.941Z,181.0
2023-12-30T17:45:00.718Z,198.4
2023-12-30T17:50:00.692Z,199.8
2023-12-30T17:55:01.962Z,202.5
2023-12-30T18:00:00.719Z,187.3
2023-12-30T18:05:00.914Z,197.0
2023-12-30T18:10:00.963Z,180.1
2023-12-30T18:15:00.709Z,180.0
2023-12-30T18:20:01.224Z,180.0
2023-12-30T18:25:00.828Z,180.0
2023-12-30T18:30:00.700Z,180.0
2023-12-30T18:35:00.985Z,180.0
2023-12-30T18:40:00.803Z,180.0
2023-12-30T18:45:00.673Z,202.3
2023-12-30T18:50:00.997Z,180.3
2023-12-30T18:55:00.656Z,180.0
2023-12-30T19:00:00.797Z,180.0
2023-12-30T19:05:01.200Z,180.2
2023-12-30T19:10:00.733Z,189.4
2023-12-30T19:15:00.659Z,182.1
2023-12-30T19:20:00.803Z,198.8
2023-12-30T19:25:00.745Z,170.9
2023-12-30T19:30:01.021Z,183.5
2023-12-30T19:35:02.206Z,180.7
2023-12-30T19:40:00.722Z,181.4
2023-12-30T19:45:00.721Z,186.4
2023-12-30T19:50:01.270Z,195.7
2023-12-30T19:55:00.710Z,181.9
2023-12-30T20:00:00.823Z,164.1
2023-12-30T20:05:03.752Z,199.6
2023-12-30T20:10:00.779Z,191.1
2023-12-30T20:15:00.755Z,177.9
2023-12-30T20:20:04.138Z,177.5
2023-12-30T20:25:00.777Z,158.3
2023-12-30T20:30:00.995Z,168.0
2023-12-30T20:35:01.060Z,184.3
2023-12-30T20:40:00.864Z,159.0
2023-12-30T20:45:00.832Z,195.9
2023-12-30T20:50:00.873Z,191.9
2023-12-30T20:55:00.705Z,191.6
2023-12-30T21:00:00.736Z,183.8
2023-12-30T21:05:00.722Z,188.6
2023-12-30T21:10:00.670Z,196.7
2023-12-30T21:15:00.764Z,191.4
2023-12-30T21:20:00.639Z,196.4
2023-12-30T21:25:27.608Z,169.5
2023-12-30T21:30:00.691Z,188.2
2023-12-30T21:35:00.748Z,196.7
2023-12-30T21:40:00.702Z,202.4
2023-12-30T21:45:00.816Z,175.0
2023-12-30T21:50:01.365Z,201.9
2023-12-30T21:55:00.688Z,159.7
2023-12-30T22:00:01.360Z,157.5
2023-12-30T22:05:01.308Z,157.5
2023-12-30T22:10:00.912Z,157.5
2023-12-30T22:15:00.939Z,157.5
2023-12-30T22:20:00.998Z,157.5
2023-12-30T22:25:00.680Z,157.5
2023-12-30T22:30:03.679Z,157.5
2023-12-30T22:35:00.687Z,157.5
2023-12-30T22:40:00.716Z,157.5
2023-12-30T22:45:00.675Z,157.5
2023-12-30T22:50:01.141Z,157.5
2023-12-30T22:55:00.731Z,157.5
2023-12-30T23:00:00.768Z,157.5
2023-12-30T23:05:00.917Z,157.5
2023-12-30T23:10:00.672Z,157.5
2023-12-30T23:15:00.678Z,157.5
2023-12-30T23:20:00.684Z,157.5
2023-12-30T23:25:00.667Z,157.5
2023-12-30T23:30:00.813Z,159.9
2023-12-30T23:35:01.023Z,169.6
2023-12-30T23:40:00.767Z,167.3
2023-12-30T23:45:00.682Z,174.2
2023-12-30T23:50:00.709Z,179.4
2023-12-30T23:55:00.676Z,178.3
